Boon, Michigan
Current Conditions -  °F | °C
As of 12:15 AM on Wednesday 26 Nov 2014 (Local Time) from KCAD Reporting Station
Overcast Overcast  
Wind Chill: 18°   Ceiling: 1600
Heat Index: 24°   Visibility: 10mi
Dew Point: 19°   Wind: 5mph
Humidity: 83%   Direction: 200°SSW
Pressure: 30.13"   Gusts: NA
Location:  44.29°N, 85.6°W
Report Text: KCAD 260515Z AUTO 20004KT 10SM OVC016 M04/M07 A3013 RMK AO2 T10451070
Loading
Personal Weather Stations






























Interactive Weather Map New forecast layout! Learn more

10-Day Weather Forecast

Advertisements
Track Severe Weather on mobile